Terminal Aerodrome Forecast
Issued by NWS Sioux Falls, SD

Home | Current Version | Previous Version | Text Only | Print | Product List | Glossary On
Versions: 1 2 3 4 5 6 7 8 9 10 11 12 13 14 15 16 17 18 19 20 21 22 23 24
000
FTUS43 KFSD 220500
TAFFSD
TAF
KFSD 220520Z 2206/2306 25006KT P6SM SCT250
     FM220800 35012KT P6SM SCT200
     FM221500 35014G20KT P6SM SCT025
     FM222100 01013KT P6SM SCT045
     FM230100 03005KT P6SM FEW150=

USA.gov is the U.S. government's official web portal to all federal, state and local government web resources and services.